createdAt,value
2023-03-28T00:01:02.803Z,2.00
2023-03-28T00:03:35.686Z,2.00
2023-03-28T00:06:05.697Z,2.10
2023-03-28T00:08:33.249Z,2.00
2023-03-28T00:11:20.925Z,2.10
2023-03-28T00:14:00.534Z,2.00
2023-03-28T00:16:37.973Z,2.00
2023-03-28T00:19:08.708Z,2.00
2023-03-28T00:21:41.524Z,2.00
2023-03-28T00:24:13.821Z,2.10
2023-03-28T00:26:43.114Z,2.10
2023-03-28T00:29:21.079Z,2.00
2023-03-28T00:31:50.188Z,2.10
2023-03-28T00:34:17.426Z,2.10
2023-03-28T00:36:44.478Z,2.10
2023-03-28T00:39:11.553Z,1.90
2023-03-28T00:41:42.657Z,1.90
2023-03-28T00:44:56.835Z,1.90
2023-03-28T00:47:26.364Z,1.90
2023-03-28T00:50:16.338Z,1.90
2023-03-28T00:53:01.710Z,1.90
2023-03-28T00:55:36.812Z,4.10
2023-03-28T00:58:13.838Z,1.80
2023-03-28T01:00:42.886Z,1.80
2023-03-28T01:03:13.565Z,1.70
2023-03-28T01:05:41.549Z,1.70
2023-03-28T01:08:24.175Z,1.90
2023-03-28T01:10:51.352Z,1.80
2023-03-28T01:13:21.615Z,1.80
2023-03-28T01:15:52.231Z,1.70
2023-03-28T01:18:22.935Z,1.70
2023-03-28T01:21:19.280Z,1.70
2023-03-28T01:24:13.808Z,1.70
2023-03-28T01:27:15.597Z,1.60
2023-03-28T01:30:02.333Z,1.60
2023-03-28T01:32:29.205Z,1.50
2023-03-28T01:35:25.245Z,1.60
2023-03-28T01:38:16.312Z,1.50
2023-03-28T01:40:48.749Z,1.50
2023-03-28T01:43:36.561Z,1.60
2023-03-28T01:46:29.050Z,1.60
2023-03-28T01:49:03.219Z,1.60
2023-03-28T01:51:51.136Z,1.60
2023-03-28T01:54:24.052Z,1.60
2023-03-28T01:57:15.576Z,1.70
2023-03-28T01:59:50.919Z,1.70
2023-03-28T02:03:11.290Z,1.70
2023-03-28T02:05:39.899Z,1.80
2023-03-28T02:08:10.052Z,1.60
2023-03-28T02:10:40.949Z,1.60
2023-03-28T02:13:25.939Z,3.70
2023-03-28T02:15:58.090Z,1.70
2023-03-28T02:18:34.469Z,1.70
2023-03-28T02:21:11.489Z,1.70
2023-03-28T02:23:47.579Z,1.60
2023-03-28T02:26:14.901Z,1.60
2023-03-28T02:28:44.441Z,1.60
2023-03-28T02:31:13.677Z,1.60
2023-03-28T02:33:47.349Z,1.60
2023-03-28T02:36:46.856Z,1.60
2023-03-28T02:39:30.102Z,1.60
2023-03-28T02:42:37.180Z,1.60
2023-03-28T02:45:26.564Z,1.60
2023-03-28T02:48:34.594Z,1.60
2023-03-28T02:51:41.673Z,1.60
2023-03-28T02:54:39.509Z,1.70
2023-03-28T02:57:11.647Z,1.70
2023-03-28T02:59:46.822Z,1.70
2023-03-28T03:02:20.498Z,1.70
2023-03-28T03:04:57.515Z,1.70
2023-03-28T03:07:25.094Z,1.60
2023-03-28T03:09:53.670Z,1.70
2023-03-28T03:12:21.719Z,1.60
2023-03-28T03:14:50.804Z,1.50
2023-03-28T03:17:18.212Z,1.80
2023-03-28T03:19:45.333Z,1.60
2023-03-28T03:22:20.956Z,1.70
2023-03-28T03:24:51.044Z,4.00
2023-03-28T03:27:21.625Z,1.70
2023-03-28T03:29:48.619Z,1.70
2023-03-28T03:32:15.551Z,1.70
2023-03-28T03:34:42.475Z,1.70
2023-03-28T03:37:10.061Z,1.70
2023-03-28T03:39:37.044Z,1.70
2023-03-28T03:42:04.703Z,1.70
2023-03-28T03:44:32.002Z,2.60
2023-03-28T03:46:59.003Z,1.80
2023-03-28T03:49:25.990Z,1.80
2023-03-28T03:51:52.996Z,1.80
2023-03-28T03:54:20.041Z,1.80
2023-03-28T03:56:47.092Z,1.80
2023-03-28T03:59:15.469Z,1.80
2023-03-28T04:01:44.096Z,1.70
2023-03-28T04:04:11.884Z,1.70
2023-03-28T04:06:39.057Z,1.70
2023-03-28T04:09:07.823Z,1.70
2023-03-28T04:11:35.841Z,1.60
2023-03-28T04:14:02.806Z,1.70
2023-03-28T04:16:29.933Z,3.80
2023-03-28T04:19:10.677Z,1.60
2023-03-28T04:21:41.646Z,1.60
2023-03-28T04:24:09.316Z,1.60
2023-03-28T04:26:38.130Z,1.60
2023-03-28T04:29:05.947Z,3.10
2023-03-28T04:31:35.766Z,1.60
2023-03-28T04:34:06.069Z,1.70
2023-03-28T04:36:33.508Z,1.70
2023-03-28T04:39:02.877Z,1.70
2023-03-28T04:41:33.173Z,1.60
2023-03-28T04:44:01.141Z,1.70
2023-03-28T04:46:31.057Z,1.70
2023-03-28T04:48:57.987Z,1.70
2023-03-28T04:51:25.203Z,1.80
2023-03-28T04:53:52.240Z,1.80
2023-03-28T04:56:19.811Z,1.80
2023-03-28T04:58:46.926Z,1.80
2023-03-28T05:01:14.737Z,1.80
2023-03-28T05:03:41.621Z,1.80
2023-03-28T05:06:08.832Z,3.40
2023-03-28T05:08:35.942Z,1.90
2023-03-28T05:11:03.029Z,1.90
2023-03-28T05:13:30.431Z,1.90
2023-03-28T05:15:57.321Z,1.90
2023-03-28T05:18:24.315Z,1.90
2023-03-28T05:20:51.575Z,2.10
2023-03-28T05:23:18.718Z,2.00
2023-03-28T05:25:54.507Z,2.10
2023-03-28T05:28:21.686Z,2.10
2023-03-28T05:30:48.817Z,2.10
2023-03-28T05:33:15.877Z,2.10
2023-03-28T05:35:43.134Z,2.10
2023-03-28T05:38:10.373Z,2.10
2023-03-28T05:40:37.936Z,2.10
2023-03-28T05:43:05.487Z,2.10
2023-03-28T05:45:32.414Z,2.00
2023-03-28T05:47:59.466Z,2.10
2023-03-28T05:50:26.399Z,3.90
2023-03-28T05:52:53.437Z,2.20
2023-03-28T05:55:20.463Z,2.20
2023-03-28T05:57:47.521Z,2.20
2023-03-28T06:00:15.761Z,2.20
2023-03-28T06:02:43.472Z,2.30
2023-03-28T06:05:13.887Z,2.30
2023-03-28T06:07:43.028Z,2.30
2023-03-28T06:10:14.568Z,2.40
2023-03-28T06:12:41.796Z,2.50
2023-03-28T06:15:09.919Z,2.60
2023-03-28T06:17:37.216Z,2.60
2023-03-28T06:20:06.696Z,2.70
2023-03-28T06:22:34.073Z,2.70
2023-03-28T06:25:00.988Z,2.60
2023-03-28T06:27:27.940Z,2.60
2023-03-28T06:29:54.886Z,2.60
2023-03-28T06:32:22.218Z,2.70
2023-03-28T06:34:49.108Z,4.10
2023-03-28T06:37:16.054Z,2.70
2023-03-28T06:39:43.082Z,2.80
2023-03-28T06:42:10.086Z,2.80
2023-03-28T06:44:36.953Z,2.80
2023-03-28T06:47:03.836Z,5.20
2023-03-28T06:49:30.865Z,4.80
2023-03-28T06:51:57.796Z,3.00
2023-03-28T06:54:25.191Z,3.10
2023-03-28T06:56:52.228Z,3.00
2023-03-28T06:59:19.211Z,3.10
2023-03-28T07:01:46.124Z,3.20
2023-03-28T07:04:13.073Z,3.10
2023-03-28T07:06:41.278Z,3.20
2023-03-28T07:09:08.360Z,3.20
2023-03-28T07:11:35.409Z,3.30
2023-03-28T07:14:02.340Z,3.30
2023-03-28T07:16:29.490Z,5.80
2023-03-28T07:18:56.634Z,3.50
2023-03-28T07:21:23.594Z,3.60
2023-03-28T07:23:50.636Z,3.60
2023-03-28T07:26:17.885Z,3.60
2023-03-28T07:28:44.841Z,3.70
2023-03-28T07:31:12.298Z,3.80
2023-03-28T07:33:39.884Z,3.90
2023-03-28T07:36:14.578Z,4.00
2023-03-28T07:38:41.992Z,4.10
2023-03-28T07:41:09.779Z,4.00
2023-03-28T07:43:38.669Z,3.80
2023-03-28T07:46:09.473Z,3.60
2023-03-28T07:48:38.208Z,3.40
2023-03-28T07:51:06.474Z,3.20
2023-03-28T07:53:34.884Z,3.20
2023-03-28T07:56:02.093Z,3.20
2023-03-28T07:58:28.985Z,3.30
2023-03-28T08:00:56.431Z,3.30
2023-03-28T08:03:24.127Z,3.40
2023-03-28T08:05:54.151Z,3.50
2023-03-28T08:08:21.724Z,3.40
2023-03-28T08:10:51.920Z,3.40
2023-03-28T08:13:21.218Z,3.40
2023-03-28T08:15:57.863Z,5.20
2023-03-28T08:18:26.211Z,3.10
2023-03-28T08:21:01.047Z,3.90
2023-03-28T08:23:29.068Z,2.70
2023-03-28T08:26:05.107Z,2.40
2023-03-28T08:28:36.998Z,2.50
2023-03-28T08:31:14.638Z,2.30
2023-03-28T08:33:44.201Z,2.20
2023-03-28T08:36:15.620Z,2.20
2023-03-28T08:38:43.599Z,2.20
2023-03-28T08:41:40.955Z,2.20
2023-03-28T08:44:45.172Z,2.40
2023-03-28T08:47:19.942Z,2.60
2023-03-28T08:49:55.615Z,2.90
2023-03-28T08:52:23.502Z,3.10
2023-03-28T08:55:02.595Z,3.10
2023-03-28T08:57:34.062Z,3.10
2023-03-28T09:00:28.581Z,4.20
2023-03-28T09:02:56.738Z,2.80
2023-03-28T09:05:38.375Z,2.70
2023-03-28T09:08:24.883Z,2.60
2023-03-28T09:11:18.539Z,2.70
2023-03-28T09:14:03.950Z,2.90
2023-03-28T09:16:43.053Z,3.10
2023-03-28T09:19:37.135Z,3.30
2023-03-28T09:22:23.968Z,3.40
2023-03-28T09:25:07.257Z,3.50
2023-03-28T09:27:56.338Z,3.70
2023-03-28T09:30:29.540Z,3.80
2023-03-28T09:32:59.792Z,3.90
2023-03-28T09:35:29.061Z,4.00
2023-03-28T09:38:06.661Z,4.10
2023-03-28T09:40:36.550Z,4.40
2023-03-28T09:43:16.009Z,4.60
2023-03-28T09:46:08.581Z,4.80
2023-03-28T09:48:38.542Z,5.10
2023-03-28T09:51:08.031Z,5.40
2023-03-28T09:53:37.768Z,5.50
2023-03-28T09:56:13.474Z,5.70
2023-03-28T09:59:28.340Z,5.90
2023-03-28T10:01:57.288Z,6.10
2023-03-28T10:04:30.603Z,6.20
2023-03-28T10:07:23.738Z,8.40
2023-03-28T10:09:54.044Z,6.50
2023-03-28T10:12:26.086Z,6.50
2023-03-28T10:14:53.260Z,6.50
2023-03-28T10:17:36.782Z,9.00
2023-03-28T10:20:18.931Z,6.20
2023-03-28T10:22:49.585Z,6.10
2023-03-28T10:25:23.580Z,6.10
2023-03-28T10:27:52.725Z,6.30
2023-03-28T10:30:31.935Z,6.50
2023-03-28T10:33:17.448Z,6.60
2023-03-28T10:35:47.608Z,6.80
2023-03-28T10:38:18.688Z,6.90
2023-03-28T10:41:11.697Z,6.60
2023-03-28T10:43:42.195Z,6.50
2023-03-28T10:46:21.726Z,6.40
2023-03-28T10:49:17.189Z,6.40
2023-03-28T10:51:45.787Z,5.80
2023-03-28T10:54:49.436Z,5.40
2023-03-28T10:57:37.183Z,6.80
2023-03-28T11:00:33.460Z,5.20
2023-03-28T11:03:24.489Z,5.50
2023-03-28T11:06:21.639Z,5.80
2023-03-28T11:09:39.575Z,7.70
2023-03-28T11:12:53.963Z,6.50
2023-03-28T11:15:38.130Z,8.60
2023-03-28T11:18:18.542Z,7.30
2023-03-28T11:20:52.649Z,7.70
2023-03-28T11:23:44.513Z,8.20
2023-03-28T11:26:31.678Z,8.40
2023-03-28T11:29:30.548Z,8.90
2023-03-28T11:32:36.576Z,8.90
2023-03-28T11:35:06.666Z,8.60
2023-03-28T11:37:44.824Z,10.50
2023-03-28T11:40:42.548Z,11.50
2023-03-28T11:43:13.877Z,8.80
2023-03-28T11:45:52.022Z,8.50
2023-03-28T11:48:53.094Z,8.10
2023-03-28T11:51:27.154Z,7.80
2023-03-28T11:54:05.317Z,7.80
2023-03-28T11:56:59.419Z,7.90
2023-03-28T12:00:05.572Z,8.10
2023-03-28T12:02:42.837Z,8.10
2023-03-28T12:06:02.723Z,9.40
2023-03-28T12:08:44.028Z,6.90
2023-03-28T12:11:36.265Z,6.30
2023-03-28T12:14:25.993Z,6.10
2023-03-28T12:16:53.742Z,5.70
2023-03-28T12:19:32.739Z,5.40
2023-03-28T12:22:09.335Z,5.30
2023-03-28T12:25:01.078Z,5.50
2023-03-28T12:27:27.921Z,5.90
2023-03-28T12:30:25.898Z,6.30
2023-03-28T12:33:31.482Z,6.90
2023-03-28T12:36:25.989Z,9.10
2023-03-28T12:38:59.408Z,7.90
2023-03-28T12:41:33.037Z,9.80
2023-03-28T12:44:22.333Z,8.50
2023-03-28T12:46:57.447Z,8.90
2023-03-28T12:49:32.790Z,9.10
2023-03-28T12:52:06.652Z,9.60
2023-03-28T12:54:36.367Z,10.10
2023-03-28T12:57:15.423Z,13.50
2023-03-28T13:00:02.273Z,12.90
2023-03-28T13:02:54.363Z,10.90
2023-03-28T13:05:57.523Z,10.50
2023-03-28T13:08:42.680Z,10.10
2023-03-28T13:11:25.503Z,9.80
2023-03-28T13:14:37.342Z,9.70
2023-03-28T13:17:26.302Z,9.50
2023-03-28T13:20:21.080Z,9.40
2023-03-28T13:22:57.334Z,8.90
2023-03-28T13:25:34.952Z,8.40
2023-03-28T13:28:11.232Z,8.20
2023-03-28T13:30:42.752Z,9.80
2023-03-28T13:33:58.714Z,8.40
2023-03-28T13:36:32.633Z,8.50
2023-03-28T13:39:08.474Z,8.50
2023-03-28T13:41:41.569Z,8.40
2023-03-28T13:44:20.772Z,8.90
2023-03-28T13:46:54.090Z,7.90
2023-03-28T13:49:29.847Z,7.50
2023-03-28T13:52:15.976Z,7.20
2023-03-28T13:54:43.225Z,9.20
2023-03-28T13:57:17.640Z,7.20
2023-03-28T13:59:53.249Z,7.40
2023-03-28T14:02:35.675Z,9.10
2023-03-28T14:05:30.560Z,7.60
2023-03-28T14:08:15.805Z,7.80
2023-03-28T14:10:45.373Z,8.20
2023-03-28T14:13:19.817Z,8.40
2023-03-28T14:15:47.121Z,8.50
2023-03-28T14:18:34.912Z,8.60
2023-03-28T14:21:03.509Z,8.60
2023-03-28T14:23:36.080Z,10.30
2023-03-28T14:26:08.729Z,8.10
2023-03-28T14:28:40.978Z,7.70
2023-03-28T14:31:30.326Z,7.40
2023-03-28T14:33:58.742Z,6.80
2023-03-28T14:36:31.113Z,6.30
2023-03-28T14:39:12.645Z,5.80
2023-03-28T14:41:42.947Z,5.10
2023-03-28T14:44:12.668Z,4.80
2023-03-28T14:46:40.455Z,5.00
2023-03-28T14:49:10.151Z,8.10
2023-03-28T14:51:47.268Z,5.90
2023-03-28T14:54:16.829Z,6.50
2023-03-28T14:56:45.655Z,9.10
2023-03-28T14:59:17.836Z,6.60
2023-03-28T15:01:48.217Z,6.40
2023-03-28T15:04:17.506Z,8.20
2023-03-28T15:06:54.656Z,6.20
2023-03-28T15:09:33.733Z,6.80
2023-03-28T15:12:09.148Z,6.00
2023-03-28T15:14:45.220Z,5.70
2023-03-28T15:17:19.532Z,5.90
2023-03-28T15:19:50.823Z,6.40
2023-03-28T15:22:26.250Z,9.90
2023-03-28T15:24:54.563Z,7.70
2023-03-28T15:27:33.689Z,11.40
2023-03-28T15:30:12.279Z,9.10
2023-03-28T15:32:39.530Z,9.60
2023-03-28T15:35:31.978Z,10.90
2023-03-28T15:38:25.358Z,10.50
2023-03-28T15:41:09.305Z,10.70
2023-03-28T15:43:41.388Z,10.70
2023-03-28T15:46:14.162Z,12.50
2023-03-28T15:48:42.717Z,12.60
2023-03-28T15:51:18.612Z,9.80
2023-03-28T15:53:47.080Z,11.70
2023-03-28T15:56:26.037Z,8.80
2023-03-28T15:58:56.500Z,8.30
2023-03-28T16:01:32.732Z,8.40
2023-03-28T16:04:28.805Z,7.10
2023-03-28T16:07:11.992Z,6.50
2023-03-28T16:09:43.277Z,6.20
2023-03-28T16:12:15.462Z,5.80
2023-03-28T16:14:51.121Z,5.50
2023-03-28T16:17:18.153Z,5.30
2023-03-28T16:19:46.606Z,5.10
2023-03-28T16:22:13.581Z,5.00
2023-03-28T16:24:40.540Z,4.80
2023-03-28T16:27:07.566Z,4.70
2023-03-28T16:29:34.525Z,7.40
2023-03-28T16:32:01.666Z,4.50
2023-03-28T16:34:28.682Z,4.50
2023-03-28T16:36:58.100Z,4.40
2023-03-28T16:39:25.126Z,4.20
2023-03-28T16:41:52.114Z,4.20
2023-03-28T16:44:19.068Z,6.60
2023-03-28T16:46:46.209Z,4.10
2023-03-28T16:49:13.234Z,3.90
2023-03-28T16:51:40.184Z,4.00
2023-03-28T16:54:07.953Z,4.00
2023-03-28T16:56:34.980Z,6.50
2023-03-28T16:59:04.100Z,3.80
2023-03-28T17:01:31.581Z,6.30
2023-03-28T17:03:58.989Z,6.30
2023-03-28T17:06:27.513Z,3.70
2023-03-28T17:08:55.099Z,3.60
2023-03-28T17:11:23.311Z,3.60
2023-03-28T17:13:55.317Z,3.50
2023-03-28T17:16:23.401Z,3.40
2023-03-28T17:18:52.101Z,3.40
2023-03-28T17:21:19.777Z,3.40
2023-03-28T17:23:48.594Z,6.50
2023-03-28T17:26:16.532Z,3.30
2023-03-28T17:28:44.003Z,3.30
2023-03-28T17:31:17.700Z,3.30
2023-03-28T17:33:46.862Z,3.30
2023-03-28T17:36:26.225Z,5.70
2023-03-28T17:38:59.130Z,3.20
2023-03-28T17:41:27.719Z,6.20
2023-03-28T17:43:57.087Z,3.80
2023-03-28T17:46:24.885Z,3.10
2023-03-28T17:48:51.966Z,3.00
2023-03-28T17:51:19.234Z,3.00
2023-03-28T17:53:47.545Z,2.80
2023-03-28T17:56:16.250Z,2.90
2023-03-28T17:58:43.959Z,2.80
2023-03-28T18:01:15.324Z,5.50
2023-03-28T18:03:44.016Z,2.90
2023-03-28T18:06:12.830Z,2.90
2023-03-28T18:08:39.940Z,2.90
2023-03-28T18:11:11.989Z,2.90
2023-03-28T18:13:39.012Z,2.90
2023-03-28T18:16:11.598Z,5.20
2023-03-28T18:18:40.666Z,2.90
2023-03-28T18:21:11.151Z,4.60
2023-03-28T18:23:38.612Z,2.80
2023-03-28T18:26:06.740Z,2.70
2023-03-28T18:28:34.662Z,2.70
2023-03-28T18:31:14.419Z,-0.20
2023-03-28T18:33:43.246Z,2.70
2023-03-28T18:36:13.135Z,4.90
2023-03-28T18:38:43.351Z,2.60
2023-03-28T18:41:12.696Z,2.60
2023-03-28T18:43:42.494Z,2.50
2023-03-28T18:46:15.795Z,2.50
2023-03-28T18:48:45.854Z,2.50
2023-03-28T18:51:13.592Z,2.60
2023-03-28T18:53:40.578Z,2.50
2023-03-28T18:56:10.297Z,2.50
2023-03-28T18:58:37.514Z,2.40
2023-03-28T19:01:10.242Z,5.50
2023-03-28T19:03:40.384Z,2.40
2023-03-28T19:06:12.812Z,2.40
2023-03-28T19:08:40.401Z,2.40
2023-03-28T19:11:14.660Z,2.40
2023-03-28T19:13:42.394Z,2.30
2023-03-28T19:16:13.287Z,2.20
2023-03-28T19:18:43.451Z,2.30
2023-03-28T19:21:11.675Z,2.40
2023-03-28T19:23:38.992Z,2.30
2023-03-28T19:26:12.529Z,2.30
2023-03-28T19:28:39.831Z,2.20
2023-03-28T19:31:10.680Z,2.30
2023-03-28T19:33:40.578Z,2.20
2023-03-28T19:36:08.095Z,2.30
2023-03-28T19:38:37.571Z,2.30
2023-03-28T19:41:11.252Z,2.20
2023-03-28T19:43:39.114Z,2.20
2023-03-28T19:46:08.729Z,2.20
2023-03-28T19:48:36.823Z,2.20
2023-03-28T19:51:04.397Z,2.20
2023-03-28T19:53:31.286Z,2.20
2023-03-28T19:55:59.805Z,4.40
2023-03-28T19:58:28.126Z,2.20
2023-03-28T20:00:58.161Z,2.20
2023-03-28T20:03:25.620Z,2.10
2023-03-28T20:05:52.920Z,2.10
2023-03-28T20:08:21.364Z,2.10
2023-03-28T20:10:52.586Z,2.10
2023-03-28T20:13:20.068Z,2.00
2023-03-28T20:15:47.508Z,2.00
2023-03-28T20:18:20.686Z,1.90
2023-03-28T20:20:57.573Z,1.90
2023-03-28T20:23:26.201Z,1.70
2023-03-28T20:25:54.001Z,1.70
2023-03-28T20:28:26.641Z,1.60
2023-03-28T20:30:54.017Z,1.60
2023-03-28T20:33:21.392Z,1.50
2023-03-28T20:35:57.286Z,1.40
2023-03-28T20:38:26.112Z,1.40
2023-03-28T20:40:53.280Z,1.30
2023-03-28T20:43:26.702Z,1.30
2023-03-28T20:45:56.362Z,1.20
2023-03-28T20:48:34.822Z,1.20
2023-03-28T20:51:14.308Z,1.30
2023-03-28T20:53:51.431Z,1.30
2023-03-28T20:56:20.111Z,1.30
2023-03-28T20:58:48.053Z,1.40
2023-03-28T21:01:17.613Z,1.40
2023-03-28T21:03:53.510Z,1.40
2023-03-28T21:06:29.288Z,1.30
2023-03-28T21:09:01.729Z,1.40
2023-03-28T21:11:32.589Z,1.30
2023-03-28T21:14:01.037Z,1.30
2023-03-28T21:16:29.467Z,1.30
2023-03-28T21:18:56.630Z,1.30
2023-03-28T21:21:23.772Z,1.30
2023-03-28T21:23:53.037Z,1.30
2023-03-28T21:26:22.851Z,1.30
2023-03-28T21:28:52.407Z,2.40
2023-03-28T21:31:25.701Z,1.20
2023-03-28T21:33:57.118Z,3.00
2023-03-28T21:36:25.192Z,1.30
2023-03-28T21:38:52.041Z,1.40
2023-03-28T21:41:19.046Z,1.20
2023-03-28T21:43:47.695Z,1.30
2023-03-28T21:46:15.497Z,1.20
2023-03-28T21:48:44.677Z,1.30
2023-03-28T21:51:11.966Z,1.20
2023-03-28T21:53:39.599Z,1.20
2023-03-28T21:56:07.135Z,1.20
2023-03-28T21:58:34.712Z,1.20
2023-03-28T22:01:03.868Z,1.20
2023-03-28T22:03:31.472Z,1.20
2023-03-28T22:05:58.580Z,1.20
2023-03-28T22:08:25.624Z,1.20
2023-03-28T22:10:57.357Z,1.20
2023-03-28T22:13:24.902Z,1.10
2023-03-28T22:15:53.163Z,1.10
2023-03-28T22:18:20.647Z,1.00
2023-03-28T22:20:53.184Z,1.10
2023-03-28T22:23:22.547Z,1.00
2023-03-28T22:25:50.151Z,1.00
2023-03-28T22:28:18.810Z,1.00
2023-03-28T22:30:46.017Z,1.00
2023-03-28T22:33:13.493Z,1.10
2023-03-28T22:35:40.593Z,1.00
2023-03-28T22:38:07.769Z,2.30
2023-03-28T22:40:35.108Z,1.10
2023-03-28T22:43:03.192Z,1.00
2023-03-28T22:45:30.169Z,3.80
2023-03-28T22:48:00.241Z,1.00
2023-03-28T22:50:28.002Z,1.10
2023-03-28T22:52:55.894Z,1.00
2023-03-28T22:55:24.226Z,0.90
2023-03-28T22:57:52.926Z,0.90
2023-03-28T23:00:22.964Z,0.90
2023-03-28T23:02:51.930Z,0.90
2023-03-28T23:05:20.092Z,0.90
2023-03-28T23:07:48.665Z,0.80
2023-03-28T23:10:20.057Z,0.90
2023-03-28T23:12:48.587Z,1.80
2023-03-28T23:15:15.775Z,0.90
2023-03-28T23:17:42.966Z,1.00
2023-03-28T23:20:14.845Z,0.90
2023-03-28T23:22:45.723Z,0.90
2023-03-28T23:25:15.035Z,0.80
2023-03-28T23:27:42.648Z,3.10
2023-03-28T23:30:12.147Z,0.80
2023-03-28T23:32:39.496Z,0.70
2023-03-28T23:35:07.922Z,0.80
2023-03-28T23:37:38.298Z,0.80
2023-03-28T23:40:10.882Z,0.70
2023-03-28T23:42:37.871Z,0.80
2023-03-28T23:45:05.531Z,0.80
2023-03-28T23:47:32.504Z,0.80
2023-03-28T23:49:59.493Z,0.70
2023-03-28T23:52:27.097Z,0.70
2023-03-28T23:54:54.056Z,0.80
2023-03-28T23:57:24.871Z,0.70
2023-03-28T23:59:51.973Z,-1.50
